sensor_id;sensor_type;location;lat;lon;timestamp;pressure;altitude;pressure_sealevel;temperature;humidity
70254;BME280;57649;42.968;1.608;2023-09-19T00:00:15;97609.34;;;17.80;100.00
70254;BME280;57649;42.968;1.608;2023-09-19T00:02:41;97609.16;;;17.75;100.00
70254;BME280;57649;42.968;1.608;2023-09-19T00:05:06;97606.66;;;17.80;100.00
70254;BME280;57649;42.968;1.608;2023-09-19T00:07:34;97600.19;;;17.81;100.00
70254;BME280;57649;42.968;1.608;2023-09-19T00:10:02;97603.53;;;17.83;100.00
70254;BME280;57649;42.968;1.608;2023-09-19T00:12:27;97603.94;;;17.80;100.00
70254;BME280;57649;42.968;1.608;2023-09-19T00:14:53;97596.06;;;17.79;100.00
70254;BME280;57649;42.968;1.608;2023-09-19T00:17:18;97598.75;;;17.85;100.00
70254;BME280;57649;42.968;1.608;2023-09-19T00:19:43;97605.84;;;17.73;100.00
70254;BME280;57649;42.968;1.608;2023-09-19T00:22:11;97607.69;;;17.73;100.00
70254;BME280;57649;42.968;1.608;2023-09-19T00:24:38;97608.56;;;17.73;100.00
70254;BME280;57649;42.968;1.608;2023-09-19T00:27:04;97604.16;;;17.65;100.00
70254;BME280;57649;42.968;1.608;2023-09-19T00:29:30;97603.13;;;17.66;100.00
70254;BME280;57649;42.968;1.608;2023-09-19T00:31:56;97594.38;;;17.71;100.00
70254;BME280;57649;42.968;1.608;2023-09-19T00:34:22;97600.41;;;17.66;100.00
70254;BME280;57649;42.968;1.608;2023-09-19T00:36:48;97599.38;;;17.61;100.00
70254;BME280;57649;42.968;1.608;2023-09-19T00:39:13;97595.19;;;17.58;100.00
70254;BME280;57649;42.968;1.608;2023-09-19T00:41:39;97605.84;;;17.66;100.00
70254;BME280;57649;42.968;1.608;2023-09-19T00:44:06;97595.63;;;17.62;100.00
70254;BME280;57649;42.968;1.608;2023-09-19T00:46:31;97604.16;;;17.45;100.00
70254;BME280;57649;42.968;1.608;2023-09-19T00:49:00;97599.56;;;17.39;100.00
70254;BME280;57649;42.968;1.608;2023-09-19T00:51:26;97590.81;;;17.30;100.00
70254;BME280;57649;42.968;1.608;2023-09-19T00:53:53;97589.16;;;17.36;100.00
70254;BME280;57649;42.968;1.608;2023-09-19T00:56:19;97588.31;;;17.36;100.00
70254;BME280;57649;42.968;1.608;2023-09-19T00:58:45;97594.16;;;17.39;100.00
70254;BME280;57649;42.968;1.608;2023-09-19T01:01:12;97585.81;;;17.21;100.00
70254;BME280;57649;42.968;1.608;2023-09-19T01:03:40;97587.88;;;17.25;100.00
70254;BME280;57649;42.968;1.608;2023-09-19T01:06:06;97586.84;;;17.13;100.00
70254;BME280;57649;42.968;1.608;2023-09-19T01:08:33;97588.31;;;17.16;100.00
70254;BME280;57649;42.968;1.608;2023-09-19T01:11:50;97590.81;;;17.24;100.00
70254;BME280;57649;42.968;1.608;2023-09-19T01:19:23;97592.00;;;17.01;100.00
70254;BME280;57649;42.968;1.608;2023-09-19T01:22:03;97595.78;;;17.00;100.00
70254;BME280;57649;42.968;1.608;2023-09-19T01:28:20;97588.25;;;16.96;100.00
70254;BME280;57649;42.968;1.608;2023-09-19T01:30:47;97592.41;;;16.91;100.00
70254;BME280;57649;42.968;1.608;2023-09-19T01:33:15;97592.63;;;16.90;100.00
70254;BME280;57649;42.968;1.608;2023-09-19T01:35:42;97593.69;;;17.02;100.00
70254;BME280;57649;42.968;1.608;2023-09-19T01:38:07;97594.09;;;16.99;100.00
70254;BME280;57649;42.968;1.608;2023-09-19T01:40:41;97589.09;;;17.03;100.00
70254;BME280;57649;42.968;1.608;2023-09-19T01:43:50;97586.19;;;16.98;100.00
70254;BME280;57649;42.968;1.608;2023-09-19T01:46:12;97589.50;;;16.93;100.00
70254;BME280;57649;42.968;1.608;2023-09-19T01:48:46;97594.91;;;17.00;100.00
70254;BME280;57649;42.968;1.608;2023-09-19T01:51:20;97594.53;;;16.96;100.00
70254;BME280;57649;42.968;1.608;2023-09-19T01:54:00;97602.63;;;16.96;100.00
70254;BME280;57649;42.968;1.608;2023-09-19T01:59:06;97595.69;;;16.80;100.00
70254;BME280;57649;42.968;1.608;2023-09-19T02:01:34;97594.44;;;16.76;100.00
70254;BME280;57649;42.968;1.608;2023-09-19T02:04:02;97593.09;;;16.59;100.00
70254;BME280;57649;42.968;1.608;2023-09-19T02:06:28;97601.78;;;16.47;100.00
70254;BME280;57649;42.968;1.608;2023-09-19T02:08:54;97602.88;;;16.60;100.00
70254;BME280;57649;42.968;1.608;2023-09-19T02:11:19;97599.47;;;16.44;100.00
70254;BME280;57649;42.968;1.608;2023-09-19T02:13:45;97593.50;;;16.49;100.00
70254;BME280;57649;42.968;1.608;2023-09-19T02:16:11;97596.78;;;16.44;100.00
70254;BME280;57649;42.968;1.608;2023-09-19T02:18:37;97604.66;;;16.39;100.00
70254;BME280;57649;42.968;1.608;2023-09-19T02:21:04;97600.53;;;16.43;100.00
70254;BME280;57649;42.968;1.608;2023-09-19T02:23:32;97600.09;;;16.40;100.00
70254;BME280;57649;42.968;1.608;2023-09-19T02:25:59;97594.22;;;16.29;100.00
70254;BME280;57649;42.968;1.608;2023-09-19T02:28:26;97590.41;;;16.17;100.00
70254;BME280;57649;42.968;1.608;2023-09-19T02:30:55;97595.66;;;15.90;100.00
70254;BME280;57649;42.968;1.608;2023-09-19T02:33:21;97595.56;;;15.77;100.00
70254;BME280;57649;42.968;1.608;2023-09-19T02:35:46;97587.47;;;15.77;100.00
70254;BME280;57649;42.968;1.608;2023-09-19T02:38:12;97586.28;;;15.86;100.00
70254;BME280;57649;42.968;1.608;2023-09-19T02:40:38;97591.00;;;15.77;100.00
70254;BME280;57649;42.968;1.608;2023-09-19T02:43:03;97594.22;;;15.73;100.00
70254;BME280;57649;42.968;1.608;2023-09-19T02:45:30;97593.78;;;15.69;100.00
70254;BME280;57649;42.968;1.608;2023-09-19T02:47:56;97587.56;;;15.69;100.00
70254;BME280;57649;42.968;1.608;2023-09-19T02:50:22;97592.69;;;15.57;100.00
70254;BME280;57649;42.968;1.608;2023-09-19T02:52:47;97593.59;;;15.71;100.00
70254;BME280;57649;42.968;1.608;2023-09-19T02:55:15;97590.59;;;15.81;100.00
70254;BME280;57649;42.968;1.608;2023-09-19T02:57:47;97580.09;;;15.71;100.00
70254;BME280;57649;42.968;1.608;2023-09-19T03:00:12;97585.41;;;15.57;100.00
70254;BME280;57649;42.968;1.608;2023-09-19T03:02:38;97577.88;;;15.53;100.00
70254;BME280;57649;42.968;1.608;2023-09-19T03:05:05;97584.41;;;15.37;100.00
70254;BME280;57649;42.968;1.608;2023-09-19T03:07:31;97580.69;;;15.38;100.00
70254;BME280;57649;42.968;1.608;2023-09-19T03:09:56;97570.41;;;15.48;100.00
70254;BME280;57649;42.968;1.608;2023-09-19T03:12:22;97576.28;;;15.58;100.00
70254;BME280;57649;42.968;1.608;2023-09-19T03:14:48;97584.06;;;15.47;100.00
70254;BME280;57649;42.968;1.608;2023-09-19T03:17:13;97574.53;;;15.44;100.00
70254;BME280;57649;42.968;1.608;2023-09-19T03:19:40;97570.78;;;15.45;100.00
70254;BME280;57649;42.968;1.608;2023-09-19T03:22:05;97577.97;;;15.38;100.00
70254;BME280;57649;42.968;1.608;2023-09-19T03:24:31;97573.66;;;15.44;100.00
70254;BME280;57649;42.968;1.608;2023-09-19T03:26:58;97567.72;;;15.27;100.00
70254;BME280;57649;42.968;1.608;2023-09-19T03:29:24;97563.88;;;15.14;100.00
70254;BME280;57649;42.968;1.608;2023-09-19T03:31:50;97567.16;;;15.10;100.00
70254;BME280;57649;42.968;1.608;2023-09-19T03:34:16;97565.22;;;15.04;100.00
70254;BME280;57649;42.968;1.608;2023-09-19T03:36:42;97565.44;;;15.02;100.00
70254;BME280;57649;42.968;1.608;2023-09-19T03:39:07;97553.75;;;14.95;100.00
70254;BME280;57649;42.968;1.608;2023-09-19T03:41:33;97546.13;;;14.83;100.00
70254;BME280;57649;42.968;1.608;2023-09-19T03:44:01;97561.06;;;15.01;100.00
70254;BME280;57649;42.968;1.608;2023-09-19T03:46:27;97558.88;;;14.90;100.00
70254;BME280;57649;42.968;1.608;2023-09-19T03:48:53;97558.59;;;14.85;100.00
70254;BME280;57649;42.968;1.608;2023-09-19T03:51:20;97558.97;;;14.81;100.00
70254;BME280;57649;42.968;1.608;2023-09-19T03:53:45;97561.94;;;14.87;100.00
70254;BME280;57649;42.968;1.608;2023-09-19T03:56:10;97563.91;;;14.78;100.00
70254;BME280;57649;42.968;1.608;2023-09-19T03:58:36;97561.88;;;14.80;100.00
70254;BME280;57649;42.968;1.608;2023-09-19T04:01:05;97567.06;;;14.81;100.00
70254;BME280;57649;42.968;1.608;2023-09-19T04:03:34;97554.38;;;14.75;100.00
70254;BME280;57649;42.968;1.608;2023-09-19T04:06:10;97561.91;;;14.65;100.00
70254;BME280;57649;42.968;1.608;2023-09-19T04:08:36;97554.09;;;14.70;100.00
70254;BME280;57649;42.968;1.608;2023-09-19T04:11:01;97559.03;;;14.67;100.00
70254;BME280;57649;42.968;1.608;2023-09-19T04:13:27;97550.50;;;14.48;100.00
70254;BME280;57649;42.968;1.608;2023-09-19T04:15:53;97547.16;;;14.61;100.00
70254;BME280;57649;42.968;1.608;2023-09-19T04:18:18;97542.41;;;14.63;100.00
70254;BME280;57649;42.968;1.608;2023-09-19T04:20:52;97540.75;;;14.62;100.00
70254;BME280;57649;42.968;1.608;2023-09-19T04:23:18;97539.72;;;14.63;100.00
70254;BME280;57649;42.968;1.608;2023-09-19T04:25:46;97539.81;;;14.55;100.00
70254;BME280;57649;42.968;1.608;2023-09-19T04:28:11;97550.22;;;14.43;100.00
70254;BME280;57649;42.968;1.608;2023-09-19T04:30:38;97553.25;;;14.18;100.00
70254;BME280;57649;42.968;1.608;2023-09-19T04:33:05;97547.50;;;14.06;100.00
70254;BME280;57649;42.968;1.608;2023-09-19T04:35:31;97546.78;;;13.98;100.00
70254;BME280;57649;42.968;1.608;2023-09-19T04:37:57;97549.28;;;13.99;100.00
70254;BME280;57649;42.968;1.608;2023-09-19T04:40:22;97547.13;;;14.10;100.00
70254;BME280;57649;42.968;1.608;2023-09-19T04:42:55;97552.13;;;14.28;100.00
70254;BME280;57649;42.968;1.608;2023-09-19T04:45:25;97552.94;;;14.28;100.00
70254;BME280;57649;42.968;1.608;2023-09-19T04:47:51;97550.16;;;14.36;100.00
70254;BME280;57649;42.968;1.608;2023-09-19T04:50:17;97548.75;;;14.40;100.00
70254;BME280;57649;42.968;1.608;2023-09-19T04:52:44;97543.22;;;14.27;100.00
70254;BME280;57649;42.968;1.608;2023-09-19T04:55:10;97547.19;;;14.31;100.00
70254;BME280;57649;42.968;1.608;2023-09-19T04:57:39;97536.72;;;14.21;100.00
70254;BME280;57649;42.968;1.608;2023-09-19T05:00:05;97550.91;;;14.15;100.00
70254;BME280;57649;42.968;1.608;2023-09-19T05:02:37;97550.00;;;13.93;100.00
70254;BME280;57649;42.968;1.608;2023-09-19T05:05:03;97553.72;;;14.07;100.00
70254;BME280;57649;42.968;1.608;2023-09-19T05:07:30;97563.56;;;14.15;100.00
70254;BME280;57649;42.968;1.608;2023-09-19T05:09:55;97566.03;;;14.31;100.00
70254;BME280;57649;42.968;1.608;2023-09-19T05:12:20;97569.56;;;14.32;100.00
70254;BME280;57649;42.968;1.608;2023-09-19T05:14:46;97578.47;;;14.32;100.00
70254;BME280;57649;42.968;1.608;2023-09-19T05:17:11;97582.13;;;14.10;100.00
70254;BME280;57649;42.968;1.608;2023-09-19T05:19:38;97588.72;;;14.22;100.00
70254;BME280;57649;42.968;1.608;2023-09-19T05:22:03;97591.78;;;14.19;100.00
70254;BME280;57649;42.968;1.608;2023-09-19T05:24:29;97593.63;;;14.03;100.00
70254;BME280;57649;42.968;1.608;2023-09-19T05:26:56;97595.94;;;13.92;100.00
70254;BME280;57649;42.968;1.608;2023-09-19T05:29:22;97606.88;;;13.75;100.00
70254;BME280;57649;42.968;1.608;2023-09-19T05:31:47;97608.44;;;13.70;100.00
70254;BME280;57649;42.968;1.608;2023-09-19T05:34:13;97602.13;;;13.62;100.00
70254;BME280;57649;42.968;1.608;2023-09-19T05:36:38;97599.53;;;13.69;100.00
70254;BME280;57649;42.968;1.608;2023-09-19T05:39:04;97601.69;;;13.74;100.00
70254;BME280;57649;42.968;1.608;2023-09-19T05:41:32;97598.44;;;13.78;100.00
70254;BME280;57649;42.968;1.608;2023-09-19T05:43:57;97605.41;;;13.88;100.00
70254;BME280;57649;42.968;1.608;2023-09-19T05:46:24;97604.66;;;13.94;100.00
70254;BME280;57649;42.968;1.608;2023-09-19T05:48:55;97613.56;;;13.79;100.00
70254;BME280;57649;42.968;1.608;2023-09-19T05:51:22;97606.34;;;13.80;100.00
70254;BME280;57649;42.968;1.608;2023-09-19T05:53:47;97615.06;;;13.82;100.00
70254;BME280;57649;42.968;1.608;2023-09-19T05:56:14;97613.56;;;13.79;100.00
70254;BME280;57649;42.968;1.608;2023-09-19T05:58:40;97609.38;;;13.77;100.00
70254;BME280;57649;42.968;1.608;2023-09-19T06:01:08;97620.06;;;13.85;100.00
70254;BME280;57649;42.968;1.608;2023-09-19T06:03:34;97612.91;;;13.77;100.00
70254;BME280;57649;42.968;1.608;2023-09-19T06:06:01;97610.03;;;13.79;100.00
70254;BME280;57649;42.968;1.608;2023-09-19T06:08:27;97611.63;;;13.88;100.00
70254;BME280;57649;42.968;1.608;2023-09-19T06:10:53;97616.28;;;13.79;100.00
70254;BME280;57649;42.968;1.608;2023-09-19T06:13:19;97615.16;;;13.74;100.00
70254;BME280;57649;42.968;1.608;2023-09-19T06:15:45;97610.59;;;13.74;100.00
70254;BME280;57649;42.968;1.608;2023-09-19T06:18:12;97614.47;;;13.72;100.00
70254;BME280;57649;42.968;1.608;2023-09-19T06:20:47;97614.28;;;13.73;100.00
70254;BME280;57649;42.968;1.608;2023-09-19T06:23:13;97618.50;;;13.76;100.00
70254;BME280;57649;42.968;1.608;2023-09-19T06:25:39;97617.84;;;13.89;100.00
70254;BME280;57649;42.968;1.608;2023-09-19T06:28:06;97609.84;;;13.80;100.00
70254;BME280;57649;42.968;1.608;2023-09-19T06:30:33;97614.03;;;13.83;100.00
70254;BME280;57649;42.968;1.608;2023-09-19T06:33:00;97615.59;;;13.77;100.00
70254;BME280;57649;42.968;1.608;2023-09-19T06:35:26;97602.22;;;13.69;100.00
70254;BME280;57649;42.968;1.608;2023-09-19T06:37:54;97618.56;;;13.82;100.00
70254;BME280;57649;42.968;1.608;2023-09-19T06:40:22;97617.66;;;13.90;100.00
70254;BME280;57649;42.968;1.608;2023-09-19T06:42:51;97615.63;;;13.92;100.00
70254;BME280;57649;42.968;1.608;2023-09-19T06:45:18;97613.94;;;13.91;100.00
70254;BME280;57649;42.968;1.608;2023-09-19T06:47:47;97616.75;;;13.98;100.00
70254;BME280;57649;42.968;1.608;2023-09-19T06:50:17;97606.25;;;14.03;100.00
70254;BME280;57649;42.968;1.608;2023-09-19T06:52:47;97601.13;;;14.08;100.00
70254;BME280;57649;42.968;1.608;2023-09-19T06:55:15;97599.56;;;14.14;100.00
70254;BME280;57649;42.968;1.608;2023-09-19T06:57:42;97601.72;;;14.18;100.00
70254;BME280;57649;42.968;1.608;2023-09-19T07:00:09;97597.41;;;14.39;100.00
70254;BME280;57649;42.968;1.608;2023-09-19T07:02:42;97594.53;;;14.40;99.91
70254;BME280;57649;42.968;1.608;2023-09-19T07:05:07;97602.13;;;14.52;99.03
70254;BME280;57649;42.968;1.608;2023-09-19T07:07:33;97589.72;;;14.51;99.39
70254;BME280;57649;42.968;1.608;2023-09-19T07:10:01;97589.06;;;14.63;99.67
70254;BME280;57649;42.968;1.608;2023-09-19T07:12:26;97598.88;;;14.71;99.02
70254;BME280;57649;42.968;1.608;2023-09-19T07:14:51;97595.88;;;14.81;98.87
70254;BME280;57649;42.968;1.608;2023-09-19T07:17:17;97593.00;;;14.82;98.49
70254;BME280;57649;42.968;1.608;2023-09-19T07:19:44;97580.53;;;14.81;99.27
70254;BME280;57649;42.968;1.608;2023-09-19T07:22:10;97578.38;;;14.92;99.75
70254;BME280;57649;42.968;1.608;2023-09-19T07:24:36;97582.50;;;14.88;99.56
70254;BME280;57649;42.968;1.608;2023-09-19T07:27:02;97581.19;;;15.05;99.50
70254;BME280;57649;42.968;1.608;2023-09-19T07:29:28;97579.66;;;15.17;99.47
70254;BME280;57649;42.968;1.608;2023-09-19T07:31:53;97584.03;;;15.18;99.98
70254;BME280;57649;42.968;1.608;2023-09-19T07:34:19;97593.41;;;15.23;99.71
70254;BME280;57649;42.968;1.608;2023-09-19T07:36:47;97590.00;;;15.35;99.27
70254;BME280;57649;42.968;1.608;2023-09-19T07:39:13;97590.25;;;15.40;99.02
70254;BME280;57649;42.968;1.608;2023-09-19T07:41:38;97586.84;;;15.53;98.20
70254;BME280;57649;42.968;1.608;2023-09-19T07:44:04;97584.25;;;15.67;97.73
70254;BME280;57649;42.968;1.608;2023-09-19T07:46:30;97586.34;;;15.71;97.35
70254;BME280;57649;42.968;1.608;2023-09-19T07:48:57;97583.53;;;15.80;96.87
70254;BME280;57649;42.968;1.608;2023-09-19T07:51:22;97587.31;;;15.85;96.57
70254;BME280;57649;42.968;1.608;2023-09-19T07:53:48;97588.19;;;15.92;95.30
70254;BME280;57649;42.968;1.608;2023-09-19T07:56:14;97594.47;;;16.00;94.40
70254;BME280;57649;42.968;1.608;2023-09-19T07:58:40;97590.56;;;16.09;94.04
70254;BME280;57649;42.968;1.608;2023-09-19T08:01:10;97587.94;;;16.22;93.31
70254;BME280;57649;42.968;1.608;2023-09-19T08:03:38;97593.78;;;16.26;92.99
70254;BME280;57649;42.968;1.608;2023-09-19T08:06:05;97595.91;;;16.37;92.01
70254;BME280;57649;42.968;1.608;2023-09-19T08:08:32;97598.03;;;16.42;91.30
70254;BME280;57649;42.968;1.608;2023-09-19T08:10:59;97594.69;;;16.40;91.54
70254;BME280;57649;42.968;1.608;2023-09-19T08:13:25;97600.59;;;16.57;91.75
70254;BME280;57649;42.968;1.608;2023-09-19T08:15:51;97601.84;;;16.61;91.03
70254;BME280;57649;42.968;1.608;2023-09-19T08:18:18;97596.47;;;16.67;91.04
70254;BME280;57649;42.968;1.608;2023-09-19T08:20:52;97603.22;;;16.91;89.69
70254;BME280;57649;42.968;1.608;2023-09-19T08:23:18;97597.69;;;17.26;85.09
70254;BME280;57649;42.968;1.608;2023-09-19T08:25:48;97601.47;;;17.85;84.23
70254;BME280;57649;42.968;1.608;2023-09-19T08:28:13;97605.38;;;18.23;83.11
70254;BME280;57649;42.968;1.608;2023-09-19T08:30:44;97602.09;;;18.66;78.66
70254;BME280;57649;42.968;1.608;2023-09-19T08:33:09;97595.69;;;19.37;76.50
70254;BME280;57649;42.968;1.608;2023-09-19T08:35:35;97603.03;;;20.12;73.45
70254;BME280;57649;42.968;1.608;2023-09-19T08:38:01;97598.19;;;20.51;72.71
70254;BME280;57649;42.968;1.608;2023-09-19T08:40:32;97594.72;;;21.00;70.49
70254;BME280;57649;42.968;1.608;2023-09-19T08:43:01;97589.63;;;21.33;69.36
70254;BME280;57649;42.968;1.608;2023-09-19T08:45:27;97589.47;;;21.47;68.40
70254;BME280;57649;42.968;1.608;2023-09-19T08:48:16;97585.09;;;21.69;67.24
70254;BME280;57649;42.968;1.608;2023-09-19T08:50:43;97585.25;;;21.98;67.05
70254;BME280;57649;42.968;1.608;2023-09-19T08:53:17;97584.53;;;22.26;66.55
70254;BME280;57649;42.968;1.608;2023-09-19T08:55:46;97581.44;;;22.46;65.83
70254;BME280;57649;42.968;1.608;2023-09-19T08:58:16;97576.03;;;22.75;65.25
70254;BME280;57649;42.968;1.608;2023-09-19T09:00:47;97569.16;;;23.01;63.08
70254;BME280;57649;42.968;1.608;2023-09-19T09:03:14;97572.84;;;23.07;62.19
70254;BME280;57649;42.968;1.608;2023-09-19T09:05:45;97564.44;;;23.42;60.96
70254;BME280;57649;42.968;1.608;2023-09-19T09:08:13;97571.94;;;23.64;60.23
70254;BME280;57649;42.968;1.608;2023-09-19T09:10:38;97572.28;;;23.85;58.73
70254;BME280;57649;42.968;1.608;2023-09-19T09:13:06;97573.84;;;23.97;58.32
70254;BME280;57649;42.968;1.608;2023-09-19T09:15:35;97577.69;;;24.35;56.82
70254;BME280;57649;42.968;1.608;2023-09-19T09:18:02;97567.06;;;24.39;53.89
70254;BME280;57649;42.968;1.608;2023-09-19T09:20:30;97564.50;;;24.71;55.29
70254;BME280;57649;42.968;1.608;2023-09-19T09:22:56;97566.34;;;24.49;55.70
70254;BME280;57649;42.968;1.608;2023-09-19T09:25:51;97560.19;;;24.36;53.35
70254;BME280;57649;42.968;1.608;2023-09-19T09:28:23;97561.72;;;24.49;52.61
70254;BME280;57649;42.968;1.608;2023-09-19T09:30:48;97561.03;;;24.59;54.42
70254;BME280;57649;42.968;1.608;2023-09-19T09:33:16;97555.06;;;24.62;52.21
70254;BME280;57649;42.968;1.608;2023-09-19T09:35:54;97555.75;;;24.74;52.44
70254;BME280;57649;42.968;1.608;2023-09-19T09:38:26;97556.19;;;24.88;52.32
70254;BME280;57649;42.968;1.608;2023-09-19T09:40:57;97550.97;;;25.14;49.89
70254;BME280;57649;42.968;1.608;2023-09-19T09:43:36;97549.94;;;25.20;50.17
70254;BME280;57649;42.968;1.608;2023-09-19T09:46:18;97543.28;;;25.11;51.38
70254;BME280;57649;42.968;1.608;2023-09-19T09:48:47;97541.06;;;25.08;50.06
70254;BME280;57649;42.968;1.608;2023-09-19T09:51:33;97544.81;;;25.24;50.91
70254;BME280;57649;42.968;1.608;2023-09-19T09:54:18;97534.16;;;25.60;49.88
70254;BME280;57649;42.968;1.608;2023-09-19T09:56:57;97536.78;;;25.17;49.67
70254;BME280;57649;42.968;1.608;2023-09-19T09:59:48;97540.00;;;24.87;50.45
70254;BME280;57649;42.968;1.608;2023-09-19T10:02:43;97534.56;;;25.14;50.42
70254;BME280;57649;42.968;1.608;2023-09-19T10:07:50;97529.53;;;25.28;49.35
70254;BME280;57649;42.968;1.608;2023-09-19T10:10:30;97542.94;;;25.02;50.41
70254;BME280;57649;42.968;1.608;2023-09-19T10:13:06;97536.22;;;24.88;50.44
70254;BME280;57649;42.968;1.608;2023-09-19T10:15:33;97526.31;;;24.87;51.27
70254;BME280;57649;42.968;1.608;2023-09-19T10:18:04;97523.59;;;24.87;51.13
70254;BME280;57649;42.968;1.608;2023-09-19T10:20:30;97517.97;;;24.71;50.67
70254;BME280;57649;42.968;1.608;2023-09-19T10:22:56;97521.66;;;24.60;52.57
70254;BME280;57649;42.968;1.608;2023-09-19T10:25:29;97521.97;;;24.91;51.47
70254;BME280;57649;42.968;1.608;2023-09-19T10:27:56;97513.88;;;24.74;51.87
70254;BME280;57649;42.968;1.608;2023-09-19T10:30:25;97515.47;;;24.70;51.51
70254;BME280;57649;42.968;1.608;2023-09-19T10:33:04;97510.94;;;24.81;51.72
70254;BME280;57649;42.968;1.608;2023-09-19T10:35:32;97506.94;;;24.66;51.77
70254;BME280;57649;42.968;1.608;2023-09-19T10:38:00;97507.06;;;24.54;51.24
70254;BME280;57649;42.968;1.608;2023-09-19T10:40:27;97499.72;;;24.55;52.24
70254;BME280;57649;42.968;1.608;2023-09-19T10:42:58;97505.84;;;24.67;51.88
70254;BME280;57649;42.968;1.608;2023-09-19T10:45:25;97496.84;;;24.94;50.94
70254;BME280;57649;42.968;1.608;2023-09-19T10:47:51;97500.63;;;23.66;55.12
70254;BME280;57649;42.968;1.608;2023-09-19T10:50:21;97501.19;;;23.85;54.93
70254;BME280;57649;42.968;1.608;2023-09-19T10:52:53;97493.78;;;23.80;56.00
70254;BME280;57649;42.968;1.608;2023-09-19T10:55:25;97487.13;;;23.59;55.14
70254;BME280;57649;42.968;1.608;2023-09-19T10:57:53;97492.25;;;23.55;55.56
70254;BME280;57649;42.968;1.608;2023-09-19T11:00:19;97482.22;;;23.61;53.08
70254;BME280;57649;42.968;1.608;2023-09-19T11:05:43;97488.06;;;23.02;56.11
70254;BME280;57649;42.968;1.608;2023-09-19T11:08:25;97485.06;;;23.66;54.66
70254;BME280;57649;42.968;1.608;2023-09-19T11:10:51;97480.31;;;23.95;53.89
70254;BME280;57649;42.968;1.608;2023-09-19T11:13:30;97485.63;;;24.24;53.67
70254;BME280;57649;42.968;1.608;2023-09-19T11:16:04;97480.53;;;24.33;53.27
70254;BME280;57649;42.968;1.608;2023-09-19T11:26:47;97484.41;;;24.59;52.49
70254;BME280;57649;42.968;1.608;2023-09-19T11:31:51;97482.31;;;24.66;52.35
70254;BME280;57649;42.968;1.608;2023-09-19T11:40:10;97477.41;;;24.68;52.63
70254;BME280;57649;42.968;1.608;2023-09-19T11:42:44;97475.53;;;25.01;51.55
70254;BME280;57649;42.968;1.608;2023-09-19T11:48:05;97450.00;;;25.60;50.26
70254;BME280;57649;42.968;1.608;2023-09-19T11:50:32;97461.09;;;25.81;49.76
70254;BME280;57649;42.968;1.608;2023-09-19T11:53:00;97456.66;;;25.32;50.11
70254;BME280;57649;42.968;1.608;2023-09-19T11:55:28;97450.81;;;25.23;50.20
70254;BME280;57649;42.968;1.608;2023-09-19T11:57:57;97446.75;;;25.26;50.14
70254;BME280;57649;42.968;1.608;2023-09-19T12:00:24;97444.56;;;24.68;50.36
70254;BME280;57649;42.968;1.608;2023-09-19T12:02:55;97443.72;;;24.95;50.19
70254;BME280;57649;42.968;1.608;2023-09-19T12:05:39;97446.41;;;24.90;50.96
70254;BME280;57649;42.968;1.608;2023-09-19T12:08:05;97434.09;;;24.92;51.71
70254;BME280;57649;42.968;1.608;2023-09-19T12:10:48;97437.50;;;25.32;50.63
70254;BME280;57649;42.968;1.608;2023-09-19T12:13:18;97441.41;;;25.41;49.20
70254;BME280;57649;42.968;1.608;2023-09-19T12:15:43;97437.03;;;25.45;49.58
70254;BME280;57649;42.968;1.608;2023-09-19T12:18:34;97425.84;;;25.20;49.66
70254;BME280;57649;42.968;1.608;2023-09-19T12:21:01;97425.59;;;25.21;49.88
70254;BME280;57649;42.968;1.608;2023-09-19T12:23:30;97414.75;;;25.31;49.51
70254;BME280;57649;42.968;1.608;2023-09-19T12:25:55;97416.84;;;24.92;49.87
70254;BME280;57649;42.968;1.608;2023-09-19T12:28:26;97409.03;;;25.06;50.35
70254;BME280;57649;42.968;1.608;2023-09-19T12:30:53;97414.25;;;25.07;50.82
70254;BME280;57649;42.968;1.608;2023-09-19T12:33:20;97405.28;;;25.17;50.93
70254;BME280;57649;42.968;1.608;2023-09-19T12:35:46;97396.00;;;24.86;49.48
70254;BME280;57649;42.968;1.608;2023-09-19T12:38:26;97394.47;;;25.00;49.79
70254;BME280;57649;42.968;1.608;2023-09-19T12:40:55;97406.31;;;25.06;51.31
70254;BME280;57649;42.968;1.608;2023-09-19T12:43:22;97388.22;;;25.05;50.18
70254;BME280;57649;42.968;1.608;2023-09-19T12:45:48;97382.47;;;25.06;50.10
70254;BME280;57649;42.968;1.608;2023-09-19T12:48:24;97386.84;;;25.07;49.04
70254;BME280;57649;42.968;1.608;2023-09-19T12:51:10;97380.91;;;24.83;50.01
70254;BME280;57649;42.968;1.608;2023-09-19T12:53:39;97369.34;;;24.76;50.66
70254;BME280;57649;42.968;1.608;2023-09-19T12:56:13;97363.00;;;25.03;50.19
70254;BME280;57649;42.968;1.608;2023-09-19T12:58:55;97357.81;;;25.06;50.58
70254;BME280;57649;42.968;1.608;2023-09-19T13:01:26;97359.34;;;25.24;51.29
70254;BME280;57649;42.968;1.608;2023-09-19T13:04:17;97345.03;;;25.22;51.09
70254;BME280;57649;42.968;1.608;2023-09-19T13:06:49;97347.06;;;24.62;52.84
70254;BME280;57649;42.968;1.608;2023-09-19T13:09:16;97345.66;;;24.92;53.29
70254;BME280;57649;42.968;1.608;2023-09-19T13:11:42;97333.03;;;24.86;53.57
70254;BME280;57649;42.968;1.608;2023-09-19T13:14:26;97331.38;;;24.85;53.05
70254;BME280;57649;42.968;1.608;2023-09-19T13:19:46;97331.31;;;24.79;52.59
70254;BME280;57649;42.968;1.608;2023-09-19T13:22:40;97328.13;;;24.88;51.17
70254;BME280;57649;42.968;1.608;2023-09-19T13:25:17;97317.13;;;24.83;52.41
70254;BME280;57649;42.968;1.608;2023-09-19T13:27:47;97315.47;;;24.82;52.74
70254;BME280;57649;42.968;1.608;2023-09-19T13:30:17;97313.81;;;24.81;51.91
70254;BME280;57649;42.968;1.608;2023-09-19T13:32:43;97324.91;;;25.01;51.18
70254;BME280;57649;42.968;1.608;2023-09-19T13:35:09;97307.94;;;24.99;51.52
70254;BME280;57649;42.968;1.608;2023-09-19T13:37:35;97309.56;;;25.00;50.56
70254;BME280;57649;42.968;1.608;2023-09-19T13:40:05;97315.75;;;24.80;51.78
70254;BME280;57649;42.968;1.608;2023-09-19T13:42:31;97308.50;;;25.01;51.71